sensor_id;sensor_type;location;lat;lon;timestamp;P1;durP1;ratioP1;P2;durP2;ratioP2
21806;SDS011;11065;50.786;7.840;2022-10-28T00:01:08;10.37;;;4.70;;
21806;SDS011;11065;50.786;7.840;2022-10-28T00:03:47;7.23;;;3.30;;
21806;SDS011;11065;50.786;7.840;2022-10-28T00:06:20;7.73;;;3.87;;
21806;SDS011;11065;50.786;7.840;2022-10-28T00:08:55;10.10;;;4.53;;
21806;SDS011;11065;50.786;7.840;2022-10-28T00:11:23;6.63;;;3.27;;
21806;SDS011;11065;50.786;7.840;2022-10-28T00:13:52;6.97;;;3.63;;
21806;SDS011;11065;50.786;7.840;2022-10-28T00:16:24;13.07;;;3.57;;
21806;SDS011;11065;50.786;7.840;2022-10-28T00:18:52;11.30;;;4.27;;
21806;SDS011;11065;50.786;7.840;2022-10-28T00:21:21;8.57;;;3.07;;
21806;SDS011;11065;50.786;7.840;2022-10-28T00:23:50;7.20;;;3.53;;
21806;SDS011;11065;50.786;7.840;2022-10-28T00:26:19;10.30;;;3.70;;
21806;SDS011;11065;50.786;7.840;2022-10-28T00:28:52;10.23;;;3.47;;
21806;SDS011;11065;50.786;7.840;2022-10-28T00:31:21;12.20;;;3.80;;
21806;SDS011;11065;50.786;7.840;2022-10-28T00:33:49;6.33;;;2.97;;
21806;SDS011;11065;50.786;7.840;2022-10-28T00:36:18;9.37;;;4.37;;
21806;SDS011;11065;50.786;7.840;2022-10-28T00:38:47;6.57;;;3.43;;
21806;SDS011;11065;50.786;7.840;2022-10-28T00:41:17;7.40;;;3.37;;
21806;SDS011;11065;50.786;7.840;2022-10-28T00:47:04;9.90;;;3.83;;
21806;SDS011;11065;50.786;7.840;2022-10-28T00:49:48;8.83;;;3.40;;
21806;SDS011;11065;50.786;7.840;2022-10-28T00:52:18;7.83;;;3.60;;
21806;SDS011;11065;50.786;7.840;2022-10-28T00:54:48;10.47;;;3.57;;
21806;SDS011;11065;50.786;7.840;2022-10-28T00:57:17;8.23;;;3.43;;
21806;SDS011;11065;50.786;7.840;2022-10-28T00:59:50;9.30;;;3.57;;
21806;SDS011;11065;50.786;7.840;2022-10-28T01:02:19;7.47;;;3.70;;
21806;SDS011;11065;50.786;7.840;2022-10-28T01:04:46;8.37;;;3.50;;
21806;SDS011;11065;50.786;7.840;2022-10-28T01:07:14;10.77;;;4.10;;
21806;SDS011;11065;50.786;7.840;2022-10-28T01:09:42;8.10;;;3.63;;
21806;SDS011;11065;50.786;7.840;2022-10-28T01:20:56;8.27;;;3.30;;
21806;SDS011;11065;50.786;7.840;2022-10-28T01:41:25;8.67;;;3.90;;
21806;SDS011;11065;50.786;7.840;2022-10-28T01:47:03;10.73;;;3.57;;
21806;SDS011;11065;50.786;7.840;2022-10-28T01:52:18;8.93;;;3.57;;
21806;SDS011;11065;50.786;7.840;2022-10-28T01:54:49;7.77;;;3.80;;
21806;SDS011;11065;50.786;7.840;2022-10-28T01:57:21;7.37;;;3.37;;
21806;SDS011;11065;50.786;7.840;2022-10-28T01:59:50;9.77;;;3.77;;
21806;SDS011;11065;50.786;7.840;2022-10-28T02:02:18;7.53;;;4.27;;
21806;SDS011;11065;50.786;7.840;2022-10-28T02:04:45;9.50;;;3.77;;
21806;SDS011;11065;50.786;7.840;2022-10-28T02:07:11;11.37;;;3.67;;
21806;SDS011;11065;50.786;7.840;2022-10-28T02:12:31;7.50;;;4.00;;
21806;SDS011;11065;50.786;7.840;2022-10-28T02:25:32;7.90;;;3.43;;
21806;SDS011;11065;50.786;7.840;2022-10-28T02:28:08;6.70;;;3.83;;
21806;SDS011;11065;50.786;7.840;2022-10-28T02:30:45;9.60;;;3.90;;
21806;SDS011;11065;50.786;7.840;2022-10-28T02:33:21;10.77;;;3.87;;
21806;SDS011;11065;50.786;7.840;2022-10-28T02:35:53;13.93;;;4.53;;
21806;SDS011;11065;50.786;7.840;2022-10-28T02:38:25;12.83;;;4.60;;
21806;SDS011;11065;50.786;7.840;2022-10-28T02:40:58;7.97;;;3.87;;
21806;SDS011;11065;50.786;7.840;2022-10-28T02:43:27;9.57;;;3.73;;
21806;SDS011;11065;50.786;7.840;2022-10-28T02:45:58;8.20;;;3.40;;
21806;SDS011;11065;50.786;7.840;2022-10-28T02:48:34;8.67;;;3.20;;
21806;SDS011;11065;50.786;7.840;2022-10-28T02:51:07;9.20;;;3.77;;
21806;SDS011;11065;50.786;7.840;2022-10-28T02:56:36;9.33;;;3.47;;
21806;SDS011;11065;50.786;7.840;2022-10-28T02:59:18;9.43;;;3.50;;
21806;SDS011;11065;50.786;7.840;2022-10-28T03:01:45;7.27;;;3.50;;
21806;SDS011;11065;50.786;7.840;2022-10-28T03:04:11;8.80;;;4.00;;
21806;SDS011;11065;50.786;7.840;2022-10-28T03:06:38;7.57;;;3.70;;
21806;SDS011;11065;50.786;7.840;2022-10-28T03:09:05;6.03;;;3.47;;
21806;SDS011;11065;50.786;7.840;2022-10-28T03:11:31;11.70;;;4.17;;
21806;SDS011;11065;50.786;7.840;2022-10-28T03:13:59;9.87;;;3.87;;
21806;SDS011;11065;50.786;7.840;2022-10-28T03:16:25;10.33;;;4.27;;
21806;SDS011;11065;50.786;7.840;2022-10-28T03:18:52;7.27;;;3.63;;
21806;SDS011;11065;50.786;7.840;2022-10-28T03:21:19;8.00;;;3.67;;
21806;SDS011;11065;50.786;7.840;2022-10-28T03:23:46;8.70;;;4.03;;
21806;SDS011;11065;50.786;7.840;2022-10-28T03:26:13;7.93;;;3.70;;
21806;SDS011;11065;50.786;7.840;2022-10-28T03:28:39;9.37;;;3.70;;
21806;SDS011;11065;50.786;7.840;2022-10-28T03:31:06;9.37;;;3.70;;
21806;SDS011;11065;50.786;7.840;2022-10-28T03:33:33;7.37;;;3.30;;
21806;SDS011;11065;50.786;7.840;2022-10-28T03:36:00;10.13;;;3.50;;
21806;SDS011;11065;50.786;7.840;2022-10-28T03:38:27;11.93;;;4.20;;
21806;SDS011;11065;50.786;7.840;2022-10-28T03:40:54;10.03;;;4.07;;
21806;SDS011;11065;50.786;7.840;2022-10-28T03:43:21;9.50;;;3.93;;
21806;SDS011;11065;50.786;7.840;2022-10-28T03:45:47;9.20;;;3.90;;
21806;SDS011;11065;50.786;7.840;2022-10-28T03:48:14;7.80;;;3.63;;
21806;SDS011;11065;50.786;7.840;2022-10-28T03:50:42;8.93;;;3.70;;
21806;SDS011;11065;50.786;7.840;2022-10-28T03:53:08;10.67;;;4.07;;
21806;SDS011;11065;50.786;7.840;2022-10-28T03:55:35;9.67;;;3.97;;
21806;SDS011;11065;50.786;7.840;2022-10-28T03:58:02;9.30;;;3.47;;
21806;SDS011;11065;50.786;7.840;2022-10-28T04:00:29;7.27;;;3.67;;
21806;SDS011;11065;50.786;7.840;2022-10-28T04:02:55;7.73;;;3.80;;
21806;SDS011;11065;50.786;7.840;2022-10-28T04:05:22;6.93;;;3.47;;
21806;SDS011;11065;50.786;7.840;2022-10-28T04:07:49;9.17;;;3.63;;
21806;SDS011;11065;50.786;7.840;2022-10-28T04:10:16;10.97;;;3.83;;
21806;SDS011;11065;50.786;7.840;2022-10-28T04:12:43;7.63;;;3.70;;
21806;SDS011;11065;50.786;7.840;2022-10-28T04:15:09;10.47;;;3.70;;
21806;SDS011;11065;50.786;7.840;2022-10-28T04:17:36;7.33;;;4.07;;
21806;SDS011;11065;50.786;7.840;2022-10-28T04:20:03;8.13;;;4.10;;
21806;SDS011;11065;50.786;7.840;2022-10-28T04:22:30;9.57;;;4.30;;
21806;SDS011;11065;50.786;7.840;2022-10-28T04:24:57;10.80;;;4.70;;
21806;SDS011;11065;50.786;7.840;2022-10-28T04:27:24;9.17;;;4.53;;
21806;SDS011;11065;50.786;7.840;2022-10-28T04:29:50;11.83;;;5.10;;
21806;SDS011;11065;50.786;7.840;2022-10-28T04:32:17;10.67;;;5.30;;
21806;SDS011;11065;50.786;7.840;2022-10-28T04:34:44;10.47;;;4.57;;
21806;SDS011;11065;50.786;7.840;2022-10-28T04:37:11;9.27;;;4.63;;
21806;SDS011;11065;50.786;7.840;2022-10-28T04:39:42;10.30;;;4.17;;
21806;SDS011;11065;50.786;7.840;2022-10-28T04:42:08;9.33;;;4.30;;
21806;SDS011;11065;50.786;7.840;2022-10-28T04:44:35;8.80;;;4.20;;
21806;SDS011;11065;50.786;7.840;2022-10-28T04:47:02;8.60;;;4.23;;
21806;SDS011;11065;50.786;7.840;2022-10-28T04:49:29;10.43;;;4.90;;
21806;SDS011;11065;50.786;7.840;2022-10-28T04:52:00;15.67;;;6.20;;
21806;SDS011;11065;50.786;7.840;2022-10-28T04:54:27;21.80;;;12.07;;
21806;SDS011;11065;50.786;7.840;2022-10-28T04:56:54;21.83;;;10.53;;
21806;SDS011;11065;50.786;7.840;2022-10-28T04:59:21;22.60;;;11.40;;
21806;SDS011;11065;50.786;7.840;2022-10-28T05:01:48;18.93;;;9.40;;
21806;SDS011;11065;50.786;7.840;2022-10-28T05:04:15;17.87;;;8.40;;
21806;SDS011;11065;50.786;7.840;2022-10-28T05:06:42;16.73;;;9.23;;
21806;SDS011;11065;50.786;7.840;2022-10-28T05:09:09;18.47;;;9.23;;
21806;SDS011;11065;50.786;7.840;2022-10-28T05:11:36;12.13;;;6.77;;
21806;SDS011;11065;50.786;7.840;2022-10-28T05:14:03;12.93;;;6.37;;
21806;SDS011;11065;50.786;7.840;2022-10-28T05:16:30;10.67;;;6.07;;
21806;SDS011;11065;50.786;7.840;2022-10-28T05:18:56;12.00;;;5.70;;
21806;SDS011;11065;50.786;7.840;2022-10-28T05:21:23;12.80;;;4.90;;
21806;SDS011;11065;50.786;7.840;2022-10-28T05:23:50;10.13;;;4.87;;
21806;SDS011;11065;50.786;7.840;2022-10-28T05:26:17;9.07;;;4.07;;
21806;SDS011;11065;50.786;7.840;2022-10-28T05:28:47;8.67;;;4.00;;
21806;SDS011;11065;50.786;7.840;2022-10-28T05:31:16;10.60;;;4.07;;
21806;SDS011;11065;50.786;7.840;2022-10-28T05:33:43;10.00;;;4.43;;
21806;SDS011;11065;50.786;7.840;2022-10-28T05:36:10;16.27;;;4.57;;
21806;SDS011;11065;50.786;7.840;2022-10-28T05:38:37;9.50;;;3.83;;
21806;SDS011;11065;50.786;7.840;2022-10-28T05:41:05;10.23;;;3.80;;
21806;SDS011;11065;50.786;7.840;2022-10-28T05:43:31;10.20;;;4.20;;
21806;SDS011;11065;50.786;7.840;2022-10-28T05:45:58;8.33;;;3.70;;
21806;SDS011;11065;50.786;7.840;2022-10-28T05:48:25;11.43;;;4.20;;
21806;SDS011;11065;50.786;7.840;2022-10-28T05:50:51;5.40;;;3.43;;
21806;SDS011;11065;50.786;7.840;2022-10-28T05:53:18;9.70;;;4.10;;
21806;SDS011;11065;50.786;7.840;2022-10-28T05:55:45;11.87;;;3.60;;
21806;SDS011;11065;50.786;7.840;2022-10-28T05:58:13;7.37;;;3.70;;
21806;SDS011;11065;50.786;7.840;2022-10-28T06:00:40;16.40;;;3.90;;
21806;SDS011;11065;50.786;7.840;2022-10-28T06:03:09;6.80;;;3.63;;
21806;SDS011;11065;50.786;7.840;2022-10-28T06:05:38;13.50;;;4.20;;
21806;SDS011;11065;50.786;7.840;2022-10-28T06:08:07;12.33;;;4.87;;
21806;SDS011;11065;50.786;7.840;2022-10-28T06:10:33;7.77;;;3.40;;
21806;SDS011;11065;50.786;7.840;2022-10-28T06:13:00;8.60;;;3.57;;
21806;SDS011;11065;50.786;7.840;2022-10-28T06:15:27;10.07;;;4.10;;
21806;SDS011;11065;50.786;7.840;2022-10-28T06:17:54;9.43;;;5.07;;
21806;SDS011;11065;50.786;7.840;2022-10-28T06:20:20;12.37;;;5.13;;
21806;SDS011;11065;50.786;7.840;2022-10-28T06:22:48;11.83;;;4.37;;
21806;SDS011;11065;50.786;7.840;2022-10-28T06:25:20;10.57;;;4.03;;
21806;SDS011;11065;50.786;7.840;2022-10-28T06:27:51;6.67;;;3.73;;
21806;SDS011;11065;50.786;7.840;2022-10-28T06:30:20;9.33;;;4.13;;
21806;SDS011;11065;50.786;7.840;2022-10-28T06:32:46;17.97;;;5.27;;
21806;SDS011;11065;50.786;7.840;2022-10-28T06:35:13;9.33;;;4.13;;
21806;SDS011;11065;50.786;7.840;2022-10-28T06:37:40;10.73;;;4.57;;
21806;SDS011;11065;50.786;7.840;2022-10-28T06:40:07;13.03;;;5.13;;
21806;SDS011;11065;50.786;7.840;2022-10-28T06:42:34;11.70;;;4.83;;
21806;SDS011;11065;50.786;7.840;2022-10-28T06:45:01;10.30;;;4.20;;
21806;SDS011;11065;50.786;7.840;2022-10-28T06:47:28;8.30;;;4.20;;
21806;SDS011;11065;50.786;7.840;2022-10-28T06:49:54;11.33;;;4.60;;
21806;SDS011;11065;50.786;7.840;2022-10-28T06:52:21;8.03;;;4.37;;
21806;SDS011;11065;50.786;7.840;2022-10-28T06:54:48;17.03;;;4.90;;
21806;SDS011;11065;50.786;7.840;2022-10-28T06:57:15;13.30;;;4.17;;
21806;SDS011;11065;50.786;7.840;2022-10-28T06:59:41;8.47;;;4.00;;
21806;SDS011;11065;50.786;7.840;2022-10-28T07:02:09;14.13;;;3.70;;
21806;SDS011;11065;50.786;7.840;2022-10-28T07:04:37;9.93;;;3.93;;
21806;SDS011;11065;50.786;7.840;2022-10-28T07:07:04;10.67;;;4.43;;
21806;SDS011;11065;50.786;7.840;2022-10-28T07:09:30;12.80;;;4.97;;
21806;SDS011;11065;50.786;7.840;2022-10-28T07:11:58;8.70;;;4.80;;
21806;SDS011;11065;50.786;7.840;2022-10-28T07:14:30;8.93;;;4.77;;
21806;SDS011;11065;50.786;7.840;2022-10-28T07:16:59;12.50;;;4.83;;
21806;SDS011;11065;50.786;7.840;2022-10-28T07:19:26;8.83;;;4.33;;
21806;SDS011;11065;50.786;7.840;2022-10-28T07:21:53;9.27;;;4.60;;
21806;SDS011;11065;50.786;7.840;2022-10-28T07:24:20;9.73;;;4.90;;
21806;SDS011;11065;50.786;7.840;2022-10-28T07:26:47;9.63;;;4.73;;
21806;SDS011;11065;50.786;7.840;2022-10-28T07:29:19;10.77;;;4.60;;
21806;SDS011;11065;50.786;7.840;2022-10-28T07:31:46;12.63;;;5.50;;
21806;SDS011;11065;50.786;7.840;2022-10-28T07:34:13;10.90;;;5.13;;
21806;SDS011;11065;50.786;7.840;2022-10-28T07:36:39;8.93;;;4.67;;
21806;SDS011;11065;50.786;7.840;2022-10-28T07:39:06;9.63;;;5.23;;
21806;SDS011;11065;50.786;7.840;2022-10-28T07:41:36;7.50;;;4.80;;
21806;SDS011;11065;50.786;7.840;2022-10-28T07:44:02;8.87;;;4.50;;
21806;SDS011;11065;50.786;7.840;2022-10-28T07:46:29;8.50;;;4.37;;
21806;SDS011;11065;50.786;7.840;2022-10-28T07:48:56;8.37;;;4.27;;
21806;SDS011;11065;50.786;7.840;2022-10-28T07:51:23;14.43;;;5.27;;
21806;SDS011;11065;50.786;7.840;2022-10-28T07:53:49;11.17;;;5.33;;
21806;SDS011;11065;50.786;7.840;2022-10-28T07:56:16;14.30;;;4.17;;
21806;SDS011;11065;50.786;7.840;2022-10-28T07:58:43;10.67;;;4.80;;
21806;SDS011;11065;50.786;7.840;2022-10-28T08:01:13;11.97;;;4.77;;
21806;SDS011;11065;50.786;7.840;2022-10-28T08:03:42;11.93;;;3.93;;
21806;SDS011;11065;50.786;7.840;2022-10-28T08:06:11;10.10;;;4.27;;
21806;SDS011;11065;50.786;7.840;2022-10-28T08:08:43;9.83;;;4.23;;
21806;SDS011;11065;50.786;7.840;2022-10-28T08:11:15;11.80;;;4.73;;
21806;SDS011;11065;50.786;7.840;2022-10-28T08:13:49;13.33;;;5.13;;
21806;SDS011;11065;50.786;7.840;2022-10-28T08:16:17;7.03;;;4.07;;
21806;SDS011;11065;50.786;7.840;2022-10-28T08:18:43;9.37;;;4.10;;
21806;SDS011;11065;50.786;7.840;2022-10-28T08:21:11;8.70;;;4.17;;
21806;SDS011;11065;50.786;7.840;2022-10-28T08:23:38;7.70;;;4.10;;
21806;SDS011;11065;50.786;7.840;2022-10-28T08:26:06;12.40;;;3.60;;
21806;SDS011;11065;50.786;7.840;2022-10-28T08:28:33;8.67;;;4.40;;
21806;SDS011;11065;50.786;7.840;2022-10-28T08:31:00;7.73;;;3.93;;
21806;SDS011;11065;50.786;7.840;2022-10-28T08:33:34;10.27;;;4.30;;
21806;SDS011;11065;50.786;7.840;2022-10-28T08:36:03;8.40;;;4.03;;
21806;SDS011;11065;50.786;7.840;2022-10-28T08:38:30;10.03;;;3.77;;
21806;SDS011;11065;50.786;7.840;2022-10-28T08:49:22;7.43;;;3.90;;
21806;SDS011;11065;50.786;7.840;2022-10-28T08:51:53;8.73;;;3.50;;
21806;SDS011;11065;50.786;7.840;2022-10-28T08:54:46;9.50;;;3.60;;
21806;SDS011;11065;50.786;7.840;2022-10-28T08:58:01;10.57;;;3.63;;
21806;SDS011;11065;50.786;7.840;2022-10-28T09:00:28;6.53;;;3.50;;
21806;SDS011;11065;50.786;7.840;2022-10-28T09:05:33;10.20;;;4.17;;
21806;SDS011;11065;50.786;7.840;2022-10-28T09:08:00;10.57;;;3.67;;
21806;SDS011;11065;50.786;7.840;2022-10-28T09:10:37;8.13;;;3.45;;
21806;SDS011;11065;50.786;7.840;2022-10-28T09:19:14;9.23;;;4.05;;
21806;SDS011;11065;50.786;7.840;2022-10-28T09:24:55;14.63;;;4.07;;
21806;SDS011;11065;50.786;7.840;2022-10-28T09:35:32;9.30;;;3.63;;
21806;SDS011;11065;50.786;7.840;2022-10-28T09:38:12;10.32;;;3.03;;
21806;SDS011;11065;50.786;7.840;2022-10-28T09:40:51;10.25;;;3.03;;
21806;SDS011;11065;50.786;7.840;2022-10-28T09:43:27;6.50;;;3.15;;
21806;SDS011;11065;50.786;7.840;2022-10-28T09:45:59;8.68;;;2.88;;
21806;SDS011;11065;50.786;7.840;2022-10-28T09:48:32;10.07;;;3.30;;
21806;SDS011;11065;50.786;7.840;2022-10-28T09:51:03;7.70;;;2.90;;
21806;SDS011;11065;50.786;7.840;2022-10-28T09:53:34;7.18;;;3.00;;
21806;SDS011;11065;50.786;7.840;2022-10-28T09:56:10;9.50;;;3.47;;
21806;SDS011;11065;50.786;7.840;2022-10-28T09:58:37;7.72;;;3.10;;
21806;SDS011;11065;50.786;7.840;2022-10-28T10:01:09;8.95;;;3.28;;
21806;SDS011;11065;50.786;7.840;2022-10-28T10:03:36;11.57;;;2.88;;
21806;SDS011;11065;50.786;7.840;2022-10-28T10:06:12;9.35;;;3.03;;
21806;SDS011;11065;50.786;7.840;2022-10-28T10:08:43;9.63;;;2.88;;
21806;SDS011;11065;50.786;7.840;2022-10-28T10:11:13;6.82;;;2.72;;
21806;SDS011;11065;50.786;7.840;2022-10-28T10:13:46;7.57;;;2.53;;
21806;SDS011;11065;50.786;7.840;2022-10-28T10:16:22;7.60;;;3.03;;
21806;SDS011;11065;50.786;7.840;2022-10-28T10:19:02;9.68;;;2.92;;
21806;SDS011;11065;50.786;7.840;2022-10-28T10:21:46;11.65;;;3.75;;
21806;SDS011;11065;50.786;7.840;2022-10-28T10:24:25;14.18;;;3.08;;
21806;SDS011;11065;50.786;7.840;2022-10-28T10:26:57;7.40;;;2.53;;
21806;SDS011;11065;50.786;7.840;2022-10-28T10:29:49;6.63;;;2.70;;
21806;SDS011;11065;50.786;7.840;2022-10-28T10:32:18;16.90;;;3.40;;
21806;SDS011;11065;50.786;7.840;2022-10-28T10:35:04;8.32;;;3.03;;
21806;SDS011;11065;50.786;7.840;2022-10-28T10:37:50;6.57;;;2.95;;
21806;SDS011;11065;50.786;7.840;2022-10-28T10:40:25;9.20;;;2.85;;
21806;SDS011;11065;50.786;7.840;2022-10-28T10:46:04;13.02;;;2.88;;
21806;SDS011;11065;50.786;7.840;2022-10-28T10:48:41;9.98;;;2.55;;
21806;SDS011;11065;50.786;7.840;2022-10-28T10:51:22;10.32;;;2.75;;
21806;SDS011;11065;50.786;7.840;2022-10-28T10:53:51;8.32;;;2.67;;
21806;SDS011;11065;50.786;7.840;2022-10-28T10:56:22;9.02;;;2.50;;
21806;SDS011;11065;50.786;7.840;2022-10-28T10:58:54;5.68;;;2.50;;
21806;SDS011;11065;50.786;7.840;2022-10-28T11:01:23;11.25;;;3.20;;
21806;SDS011;11065;50.786;7.840;2022-10-28T11:04:02;8.80;;;3.30;;
21806;SDS011;11065;50.786;7.840;2022-10-28T11:06:40;6.65;;;2.70;;
21806;SDS011;11065;50.786;7.840;2022-10-28T11:09:18;8.07;;;2.50;;
21806;SDS011;11065;50.786;7.840;2022-10-28T11:11:52;8.35;;;2.53;;
21806;SDS011;11065;50.786;7.840;2022-10-28T11:14:22;7.78;;;2.35;;
21806;SDS011;11065;50.786;7.840;2022-10-28T11:16:58;6.13;;;2.67;;
21806;SDS011;11065;50.786;7.840;2022-10-28T11:19:30;12.48;;;3.20;;
21806;SDS011;11065;50.786;7.840;2022-10-28T11:29:49;10.52;;;3.03;;
21806;SDS011;11065;50.786;7.840;2022-10-28T11:32:22;7.95;;;2.67;;
21806;SDS011;11065;50.786;7.840;2022-10-28T11:38:15;7.53;;;2.67;;
21806;SDS011;11065;50.786;7.840;2022-10-28T11:43:49;10.52;;;2.97;;
21806;SDS011;11065;50.786;7.840;2022-10-28T11:52:05;8.20;;;3.15;;
21806;SDS011;11065;50.786;7.840;2022-10-28T11:54:39;9.18;;;2.65;;
21806;SDS011;11065;50.786;7.840;2022-10-28T11:57:26;10.48;;;2.90;;
21806;SDS011;11065;50.786;7.840;2022-10-28T12:05:46;9.75;;;2.60;;
21806;SDS011;11065;50.786;7.840;2022-10-28T12:11:02;8.70;;;2.58;;
21806;SDS011;11065;50.786;7.840;2022-10-28T12:13:39;10.25;;;2.75;;
21806;SDS011;11065;50.786;7.840;2022-10-28T12:16:16;5.97;;;2.50;;
21806;SDS011;11065;50.786;7.840;2022-10-28T12:18:56;7.28;;;1.90;;
21806;SDS011;11065;50.786;7.840;2022-10-28T12:21:30;9.85;;;2.80;;
21806;SDS011;11065;50.786;7.840;2022-10-28T12:24:08;8.35;;;2.53;;
21806;SDS011;11065;50.786;7.840;2022-10-28T12:26:46;7.43;;;2.40;;
21806;SDS011;11065;50.786;7.840;2022-10-28T12:32:06;9.07;;;2.70;;
21806;SDS011;11065;50.786;7.840;2022-10-28T12:34:34;11.57;;;2.67;;
21806;SDS011;11065;50.786;7.840;2022-10-28T12:37:08;11.55;;;2.47;;
21806;SDS011;11065;50.786;7.840;2022-10-28T12:39:41;9.13;;;2.33;;
21806;SDS011;11065;50.786;7.840;2022-10-28T12:42:14;11.77;;;2.88;;
21806;SDS011;11065;50.786;7.840;2022-10-28T12:44:45;8.32;;;2.42;;
21806;SDS011;11065;50.786;7.840;2022-10-28T12:53:13;10.05;;;2.80;;
21806;SDS011;11065;50.786;7.840;2022-10-28T12:55:56;6.50;;;2.47;;
21806;SDS011;11065;50.786;7.840;2022-10-28T12:58:28;9.25;;;2.60;;
21806;SDS011;11065;50.786;7.840;2022-10-28T13:01:15;6.68;;;2.17;;
21806;SDS011;11065;50.786;7.840;2022-10-28T13:03:45;8.95;;;2.15;;
21806;SDS011;11065;50.786;7.840;2022-10-28T13:09:24;10.38;;;3.00;;
21806;SDS011;11065;50.786;7.840;2022-10-28T13:14:59;7.93;;;2.63;;
21806;SDS011;11065;50.786;7.840;2022-10-28T13:26:08;7.47;;;2.88;;
21806;SDS011;11065;50.786;7.840;2022-10-28T13:29:17;8.63;;;2.58;;
21806;SDS011;11065;50.786;7.840;2022-10-28T13:31:50;8.10;;;2.47;;
21806;SDS011;11065;50.786;7.840;2022-10-28T13:34:19;11.35;;;3.10;;
21806;SDS011;11065;50.786;7.840;2022-10-28T13:36:55;9.15;;;2.30;;
21806;SDS011;11065;50.786;7.840;2022-10-28T13:42:55;10.18;;;2.92;;
21806;SDS011;11065;50.786;7.840;2022-10-28T13:47:31;9.60;;;3.00;;
21806;SDS011;11065;50.786;7.840;2022-10-28T13:52:35;9.65;;;2.58;;
21806;SDS011;11065;50.786;7.840;2022-10-28T13:57:47;10.40;;;3.05;;
21806;SDS011;11065;50.786;7.840;2022-10-28T14:02:53;12.77;;;3.05;;
21806;SDS011;11065;50.786;7.840;2022-10-28T14:08:05;10.60;;;2.90;;
21806;SDS011;11065;50.786;7.840;2022-10-28T14:10:56;9.48;;;2.47;;
21806;SDS011;11065;50.786;7.840;2022-10-28T14:13:39;10.63;;;2.58;;
21806;SDS011;11065;50.786;7.840;2022-10-28T14:16:15;9.95;;;2.30;;
21806;SDS011;11065;50.786;7.840;2022-10-28T14:18:56;9.70;;;2.95;;
21806;SDS011;11065;50.786;7.840;2022-10-28T14:24:29;9.52;;;2.50;;
21806;SDS011;11065;50.786;7.840;2022-10-28T14:35:04;7.38;;;2.60;;
21806;SDS011;11065;50.786;7.840;2022-10-28T14:43:12;10.57;;;3.20;;
21806;SDS011;11065;50.786;7.840;2022-10-28T14:46:15;7.43;;;3.20;;
21806;SDS011;11065;50.786;7.840;2022-10-28T14:48:53;9.55;;;2.53;;
21806;SDS011;11065;50.786;7.840;2022-10-28T14:51:23;13.13;;;2.40;;
21806;SDS011;11065;50.786;7.840;2022-10-28T14:53:53;10.25;;;2.80;;
21806;SDS011;11065;50.786;7.840;2022-10-28T14:56:24;14.63;;;2.95;;
21806;SDS011;11065;50.786;7.840;2022-10-28T14:59:31;9.30;;;3.03;;
21806;SDS011;11065;50.786;7.840;2022-10-28T15:02:10;11.32;;;3.35;;
21806;SDS011;11065;50.786;7.840;2022-10-28T15:04:42;6.68;;;2.85;;
21806;SDS011;11065;50.786;7.840;2022-10-28T15:07:15;13.00;;;3.50;;
21806;SDS011;11065;50.786;7.840;2022-10-28T15:09:44;8.45;;;3.28;;
21806;SDS011;11065;50.786;7.840;2022-10-28T15:12:19;8.35;;;3.00;;
21806;SDS011;11065;50.786;7.840;2022-10-28T15:14:54;9.23;;;2.80;;
21806;SDS011;11065;50.786;7.840;2022-10-28T15:17:26;6.93;;;2.78;;
21806;SDS011;11065;50.786;7.840;2022-10-28T15:19:55;9.73;;;3.20;;
21806;SDS011;11065;50.786;7.840;2022-10-28T15:27:20;14.98;;;2.70;;
21806;SDS011;11065;50.786;7.840;2022-10-28T15:29:47;9.55;;;3.45;;
21806;SDS011;11065;50.786;7.840;2022-10-28T15:34:45;10.75;;;3.40;;
21806;SDS011;11065;50.786;7.840;2022-10-28T15:37:19;12.93;;;3.40;;
21806;SDS011;11065;50.786;7.840;2022-10-28T15:39:48;10.75;;;3.20;;
21806;SDS011;11065;50.786;7.840;2022-10-28T15:42:28;12.18;;;3.75;;
21806;SDS011;11065;50.786;7.840;2022-10-28T15:44:59;10.10;;;3.70;;
21806;SDS011;11065;50.786;7.840;2022-10-28T15:50:03;10.73;;;3.30;;
21806;SDS011;11065;50.786;7.840;2022-10-28T15:52:52;9.00;;;3.17;;
21806;SDS011;11065;50.786;7.840;2022-10-28T15:55:27;12.67;;;3.73;;
21806;SDS011;11065;50.786;7.840;2022-10-28T16:00:51;13.33;;;3.67;;
21806;SDS011;11065;50.786;7.840;2022-10-28T16:03:23;10.13;;;3.53;;
21806;SDS011;11065;50.786;7.840;2022-10-28T16:06:27;12.53;;;3.70;;
21806;SDS011;11065;50.786;7.840;2022-10-28T16:08:58;12.90;;;3.50;;
21806;SDS011;11065;50.786;7.840;2022-10-28T16:11:27;12.83;;;3.93;;
21806;SDS011;11065;50.786;7.840;2022-10-28T16:13:55;9.03;;;3.60;;
21806;SDS011;11065;50.786;7.840;2022-10-28T16:16:24;11.53;;;3.00;;
21806;SDS011;11065;50.786;7.840;2022-10-28T16:19:38;12.27;;;3.73;;
21806;SDS011;11065;50.786;7.840;2022-10-28T16:21:49;9.83;;;2.87;;
21806;SDS011;11065;50.786;7.840;2022-10-28T16:24:16;10.17;;;3.33;;
21806;SDS011;11065;50.786;7.840;2022-10-28T16:26:42;9.93;;;3.03;;
21806;SDS011;11065;50.786;7.840;2022-10-28T16:29:09;13.60;;;3.83;;
21806;SDS011;11065;50.786;7.840;2022-10-28T16:31:36;10.67;;;2.90;;
21806;SDS011;11065;50.786;7.840;2022-10-28T16:34:03;9.47;;;3.37;;
21806;SDS011;11065;50.786;7.840;2022-10-28T16:36:30;10.17;;;3.07;;
21806;SDS011;11065;50.786;7.840;2022-10-28T16:38:57;7.20;;;2.87;;
21806;SDS011;11065;50.786;7.840;2022-10-28T16:41:24;15.30;;;3.17;;
21806;SDS011;11065;50.786;7.840;2022-10-28T16:43:51;9.50;;;4.87;;
21806;SDS011;11065;50.786;7.840;2022-10-28T16:46:18;12.90;;;4.63;;
21806;SDS011;11065;50.786;7.840;2022-10-28T16:48:45;13.10;;;5.57;;
21806;SDS011;11065;50.786;7.840;2022-10-28T16:51:15;19.10;;;8.13;;
21806;SDS011;11065;50.786;7.840;2022-10-28T16:53:43;16.17;;;7.10;;
21806;SDS011;11065;50.786;7.840;2022-10-28T16:56:15;17.13;;;6.33;;
21806;SDS011;11065;50.786;7.840;2022-10-28T16:58:43;15.67;;;5.97;;
21806;SDS011;11065;50.786;7.840;2022-10-28T17:01:11;10.97;;;3.87;;
21806;SDS011;11065;50.786;7.840;2022-10-28T17:03:43;15.40;;;4.17;;
21806;SDS011;11065;50.786;7.840;2022-10-28T17:06:09;13.40;;;4.40;;
21806;SDS011;11065;50.786;7.840;2022-10-28T17:08:36;12.20;;;4.10;;
21806;SDS011;11065;50.786;7.840;2022-10-28T17:11:23;12.07;;;4.13;;
21806;SDS011;11065;50.786;7.840;2022-10-28T17:13:50;10.77;;;3.33;;
21806;SDS011;11065;50.786;7.840;2022-10-28T17:16:16;10.87;;;3.63;;
21806;SDS011;11065;50.786;7.840;2022-10-28T17:18:43;13.40;;;3.60;;
21806;SDS011;11065;50.786;7.840;2022-10-28T17:21:11;10.87;;;3.23;;
21806;SDS011;11065;50.786;7.840;2022-10-28T17:23:38;15.33;;;3.53;;
21806;SDS011;11065;50.786;7.840;2022-10-28T17:26:05;8.23;;;3.07;;
21806;SDS011;11065;50.786;7.840;2022-10-28T17:28:31;12.00;;;3.67;;
21806;SDS011;11065;50.786;7.840;2022-10-28T17:31:04;11.70;;;3.83;;
21806;SDS011;11065;50.786;7.840;2022-10-28T17:33:33;14.90;;;5.10;;
21806;SDS011;11065;50.786;7.840;2022-10-28T17:36:01;20.90;;;5.67;;
21806;SDS011;11065;50.786;7.840;2022-10-28T17:38:28;16.50;;;5.60;;
21806;SDS011;11065;50.786;7.840;2022-10-28T17:40:56;17.57;;;7.13;;
21806;SDS011;11065;50.786;7.840;2022-10-28T17:43:23;13.43;;;6.47;;
21806;SDS011;11065;50.786;7.840;2022-10-28T17:45:50;12.93;;;5.63;;
21806;SDS011;11065;50.786;7.840;2022-10-28T17:48:17;12.40;;;5.50;;
21806;SDS011;11065;50.786;7.840;2022-10-28T17:50:44;32.07;;;24.37;;
21806;SDS011;11065;50.786;7.840;2022-10-28T17:53:19;25.40;;;12.47;;
21806;SDS011;11065;50.786;7.840;2022-10-28T17:55:56;16.67;;;8.00;;
21806;SDS011;11065;50.786;7.840;2022-10-28T17:58:24;11.73;;;5.70;;
21806;SDS011;11065;50.786;7.840;2022-10-28T18:00:58;13.53;;;5.23;;
21806;SDS011;11065;50.786;7.840;2022-10-28T18:03:26;17.07;;;6.07;;